sensor_id;sensor_type;location;lat;lon;timestamp;temperature;humidity
12125;DHT22;6126;57.908;16.490;2023-05-23T00:00:45;10.20;77.10
12125;DHT22;6126;57.908;16.490;2023-05-23T00:03:12;9.60;77.60
12125;DHT22;6126;57.908;16.490;2023-05-23T00:05:38;9.60;78.10
12125;DHT22;6126;57.908;16.490;2023-05-23T00:08:04;9.60;78.70
12125;DHT22;6126;57.908;16.490;2023-05-23T00:10:29;9.40;78.90
12125;DHT22;6126;57.908;16.490;2023-05-23T00:12:55;9.00;78.90
12125;DHT22;6126;57.908;16.490;2023-05-23T00:15:22;9.00;79.20
12125;DHT22;6126;57.908;16.490;2023-05-23T00:17:48;9.20;79.60
12125;DHT22;6126;57.908;16.490;2023-05-23T00:20:15;8.90;79.40
12125;DHT22;6126;57.908;16.490;2023-05-23T00:22:41;8.80;79.50
12125;DHT22;6126;57.908;16.490;2023-05-23T00:25:08;8.90;79.70
12125;DHT22;6126;57.908;16.490;2023-05-23T00:27:35;9.00;79.80
12125;DHT22;6126;57.908;16.490;2023-05-23T00:30:01;8.70;79.80
12125;DHT22;6126;57.908;16.490;2023-05-23T00:32:28;8.60;79.90
12125;DHT22;6126;57.908;16.490;2023-05-23T00:34:54;8.80;80.20
12125;DHT22;6126;57.908;16.490;2023-05-23T00:37:22;9.00;80.40
12125;DHT22;6126;57.908;16.490;2023-05-23T00:39:48;8.40;80.00
12125;DHT22;6126;57.908;16.490;2023-05-23T00:42:14;8.80;80.50
12125;DHT22;6126;57.908;16.490;2023-05-23T00:44:40;8.70;80.50
12125;DHT22;6126;57.908;16.490;2023-05-23T00:47:06;8.90;80.70
12125;DHT22;6126;57.908;16.490;2023-05-23T00:49:34;8.70;80.40
12125;DHT22;6126;57.908;16.490;2023-05-23T00:52:00;8.80;80.50
12125;DHT22;6126;57.908;16.490;2023-05-23T00:54:29;8.90;80.60
12125;DHT22;6126;57.908;16.490;2023-05-23T00:56:58;9.10;80.80
12125;DHT22;6126;57.908;16.490;2023-05-23T00:59:25;9.00;80.70
12125;DHT22;6126;57.908;16.490;2023-05-23T01:01:53;8.70;80.50
12125;DHT22;6126;57.908;16.490;2023-05-23T01:04:20;8.50;80.50
12125;DHT22;6126;57.908;16.490;2023-05-23T01:06:55;8.60;81.00
12125;DHT22;6126;57.908;16.490;2023-05-23T01:09:22;8.40;80.90
12125;DHT22;6126;57.908;16.490;2023-05-23T01:12:02;8.50;81.10
12125;DHT22;6126;57.908;16.490;2023-05-23T01:14:59;8.40;81.20
12125;DHT22;6126;57.908;16.490;2023-05-23T01:20:42;8.20;81.50
12125;DHT22;6126;57.908;16.490;2023-05-23T01:23:53;8.00;81.40
12125;DHT22;6126;57.908;16.490;2023-05-23T01:30:12;8.20;82.10
12125;DHT22;6126;57.908;16.490;2023-05-23T01:32:42;8.30;81.90
12125;DHT22;6126;57.908;16.490;2023-05-23T01:35:09;8.10;81.80
12125;DHT22;6126;57.908;16.490;2023-05-23T01:37:36;8.10;81.80
12125;DHT22;6126;57.908;16.490;2023-05-23T01:40:02;8.20;81.80
12125;DHT22;6126;57.908;16.490;2023-05-23T01:42:29;8.40;82.00
12125;DHT22;6126;57.908;16.490;2023-05-23T01:44:56;8.40;82.20
12125;DHT22;6126;57.908;16.490;2023-05-23T01:47:24;8.30;81.90
12125;DHT22;6126;57.908;16.490;2023-05-23T01:49:52;8.30;82.00
12125;DHT22;6126;57.908;16.490;2023-05-23T01:52:20;8.10;82.20
12125;DHT22;6126;57.908;16.490;2023-05-23T01:54:47;8.20;82.40
12125;DHT22;6126;57.908;16.490;2023-05-23T01:57:14;8.20;82.20
12125;DHT22;6126;57.908;16.490;2023-05-23T01:59:40;8.40;82.40
12125;DHT22;6126;57.908;16.490;2023-05-23T02:02:06;8.50;82.40
12125;DHT22;6126;57.908;16.490;2023-05-23T02:04:32;8.30;82.10
12125;DHT22;6126;57.908;16.490;2023-05-23T02:06:59;8.20;82.00
12125;DHT22;6126;57.908;16.490;2023-05-23T02:09:25;8.30;82.10
12125;DHT22;6126;57.908;16.490;2023-05-23T02:11:51;8.30;82.00
12125;DHT22;6126;57.908;16.490;2023-05-23T02:14:17;8.30;81.90
12125;DHT22;6126;57.908;16.490;2023-05-23T02:16:43;8.50;82.20
12125;DHT22;6126;57.908;16.490;2023-05-23T02:19:10;8.50;82.60
12125;DHT22;6126;57.908;16.490;2023-05-23T02:21:37;8.50;82.60
12125;DHT22;6126;57.908;16.490;2023-05-23T02:24:03;8.30;82.70
12125;DHT22;6126;57.908;16.490;2023-05-23T02:26:29;8.20;82.70
12125;DHT22;6126;57.908;16.490;2023-05-23T02:28:55;8.20;82.70
12125;DHT22;6126;57.908;16.490;2023-05-23T02:31:20;8.40;82.80
12125;DHT22;6126;57.908;16.490;2023-05-23T02:33:46;8.30;82.80
12125;DHT22;6126;57.908;16.490;2023-05-23T02:36:12;8.10;82.80
12125;DHT22;6126;57.908;16.490;2023-05-23T02:38:39;8.30;83.30
12125;DHT22;6126;57.908;16.490;2023-05-23T02:41:04;8.20;82.70
12125;DHT22;6126;57.908;16.490;2023-05-23T02:43:30;8.30;83.10
12125;DHT22;6126;57.908;16.490;2023-05-23T02:45:56;8.40;83.10
12125;DHT22;6126;57.908;16.490;2023-05-23T02:48:22;8.30;83.20
12125;DHT22;6126;57.908;16.490;2023-05-23T02:50:48;8.30;83.50
12125;DHT22;6126;57.908;16.490;2023-05-23T02:53:14;8.20;83.20
12125;DHT22;6126;57.908;16.490;2023-05-23T02:55:40;8.30;83.20
12125;DHT22;6126;57.908;16.490;2023-05-23T02:58:07;8.20;83.20
12125;DHT22;6126;57.908;16.490;2023-05-23T03:00:33;8.20;83.20
12125;DHT22;6126;57.908;16.490;2023-05-23T03:03:00;8.00;83.10
12125;DHT22;6126;57.908;16.490;2023-05-23T03:05:26;8.00;83.70
12125;DHT22;6126;57.908;16.490;2023-05-23T03:07:52;8.20;83.70
12125;DHT22;6126;57.908;16.490;2023-05-23T03:10:19;8.00;84.00
12125;DHT22;6126;57.908;16.490;2023-05-23T03:12:45;8.10;83.80
12125;DHT22;6126;57.908;16.490;2023-05-23T03:15:11;8.10;83.80
12125;DHT22;6126;57.908;16.490;2023-05-23T03:17:38;8.10;83.90
12125;DHT22;6126;57.908;16.490;2023-05-23T03:20:04;8.00;84.30
12125;DHT22;6126;57.908;16.490;2023-05-23T03:22:34;8.10;84.50
12125;DHT22;6126;57.908;16.490;2023-05-23T03:25:01;8.20;84.50
12125;DHT22;6126;57.908;16.490;2023-05-23T03:27:27;8.10;84.40
12125;DHT22;6126;57.908;16.490;2023-05-23T03:29:53;8.20;84.60
12125;DHT22;6126;57.908;16.490;2023-05-23T03:32:18;7.90;83.90
12125;DHT22;6126;57.908;16.490;2023-05-23T03:34:44;8.10;83.90
12125;DHT22;6126;57.908;16.490;2023-05-23T03:37:10;8.40;84.50
12125;DHT22;6126;57.908;16.490;2023-05-23T03:39:36;8.20;84.10
12125;DHT22;6126;57.908;16.490;2023-05-23T03:42:02;8.10;84.00
12125;DHT22;6126;57.908;16.490;2023-05-23T03:44:28;8.30;84.30
12125;DHT22;6126;57.908;16.490;2023-05-23T03:46:53;8.30;84.10
12125;DHT22;6126;57.908;16.490;2023-05-23T03:49:19;8.70;84.30
12125;DHT22;6126;57.908;16.490;2023-05-23T03:51:45;8.60;84.30
12125;DHT22;6126;57.908;16.490;2023-05-23T03:54:11;8.30;83.80
12125;DHT22;6126;57.908;16.490;2023-05-23T03:56:37;8.40;84.00
12125;DHT22;6126;57.908;16.490;2023-05-23T03:59:03;8.60;84.20
12125;DHT22;6126;57.908;16.490;2023-05-23T04:01:29;8.80;84.40
12125;DHT22;6126;57.908;16.490;2023-05-23T04:03:54;8.70;84.30
12125;DHT22;6126;57.908;16.490;2023-05-23T04:06:20;8.90;84.30
12125;DHT22;6126;57.908;16.490;2023-05-23T04:08:47;9.20;84.50
12125;DHT22;6126;57.908;16.490;2023-05-23T04:11:13;9.40;84.40
12125;DHT22;6126;57.908;16.490;2023-05-23T04:13:39;10.50;83.00
12125;DHT22;6126;57.908;16.490;2023-05-23T04:16:05;11.40;81.60
12125;DHT22;6126;57.908;16.490;2023-05-23T04:18:31;12.30;80.40
12125;DHT22;6126;57.908;16.490;2023-05-23T04:20:58;13.10;79.00
12125;DHT22;6126;57.908;16.490;2023-05-23T04:23:24;14.20;77.60
12125;DHT22;6126;57.908;16.490;2023-05-23T04:25:50;15.20;76.40
12125;DHT22;6126;57.908;16.490;2023-05-23T04:28:17;15.30;74.90
12125;DHT22;6126;57.908;16.490;2023-05-23T04:30:43;15.30;74.70
12125;DHT22;6126;57.908;16.490;2023-05-23T04:33:09;16.00;74.10
12125;DHT22;6126;57.908;16.490;2023-05-23T04:35:36;16.30;72.80
12125;DHT22;6126;57.908;16.490;2023-05-23T04:38:05;16.30;72.40
12125;DHT22;6126;57.908;16.490;2023-05-23T04:40:31;16.30;72.50
12125;DHT22;6126;57.908;16.490;2023-05-23T04:42:57;16.30;73.10
12125;DHT22;6126;57.908;16.490;2023-05-23T04:45:23;15.70;73.70
12125;DHT22;6126;57.908;16.490;2023-05-23T04:47:51;16.10;73.40
12125;DHT22;6126;57.908;16.490;2023-05-23T04:50:19;16.20;73.30
12125;DHT22;6126;57.908;16.490;2023-05-23T04:52:47;16.10;73.30
12125;DHT22;6126;57.908;16.490;2023-05-23T04:55:13;15.80;73.70
12125;DHT22;6126;57.908;16.490;2023-05-23T04:57:39;15.10;73.80
12125;DHT22;6126;57.908;16.490;2023-05-23T05:00:05;15.30;74.60
12125;DHT22;6126;57.908;16.490;2023-05-23T05:02:35;15.10;74.90
12125;DHT22;6126;57.908;16.490;2023-05-23T05:05:02;15.20;75.20
12125;DHT22;6126;57.908;16.490;2023-05-23T05:07:29;14.90;75.00
12125;DHT22;6126;57.908;16.490;2023-05-23T05:09:55;15.00;75.10
12125;DHT22;6126;57.908;16.490;2023-05-23T05:12:21;15.00;75.00
12125;DHT22;6126;57.908;16.490;2023-05-23T05:14:47;14.90;74.80
12125;DHT22;6126;57.908;16.490;2023-05-23T05:17:13;15.10;75.00
12125;DHT22;6126;57.908;16.490;2023-05-23T05:19:39;15.10;75.00
12125;DHT22;6126;57.908;16.490;2023-05-23T05:22:04;14.90;74.70
12125;DHT22;6126;57.908;16.490;2023-05-23T05:24:32;15.10;74.80
12125;DHT22;6126;57.908;16.490;2023-05-23T05:26:58;15.30;75.00
12125;DHT22;6126;57.908;16.490;2023-05-23T05:29:24;15.10;74.70
12125;DHT22;6126;57.908;16.490;2023-05-23T05:31:51;15.10;74.50
12125;DHT22;6126;57.908;16.490;2023-05-23T05:34:17;15.30;74.70
12125;DHT22;6126;57.908;16.490;2023-05-23T05:36:43;15.40;74.60
12125;DHT22;6126;57.908;16.490;2023-05-23T05:39:15;15.20;74.30
12125;DHT22;6126;57.908;16.490;2023-05-23T05:41:41;15.40;74.30
12125;DHT22;6126;57.908;16.490;2023-05-23T05:44:08;15.20;74.00
12125;DHT22;6126;57.908;16.490;2023-05-23T05:46:34;15.50;74.20
12125;DHT22;6126;57.908;16.490;2023-05-23T05:49:00;15.30;74.10
12125;DHT22;6126;57.908;16.490;2023-05-23T05:51:26;15.40;74.10
12125;DHT22;6126;57.908;16.490;2023-05-23T05:53:52;15.30;73.90
12125;DHT22;6126;57.908;16.490;2023-05-23T05:56:17;15.20;73.60
12125;DHT22;6126;57.908;16.490;2023-05-23T05:58:44;15.20;73.30
12125;DHT22;6126;57.908;16.490;2023-05-23T06:01:10;15.20;73.20
12125;DHT22;6126;57.908;16.490;2023-05-23T06:03:36;15.40;73.10
12125;DHT22;6126;57.908;16.490;2023-05-23T06:06:02;15.40;73.00
12125;DHT22;6126;57.908;16.490;2023-05-23T06:08:28;15.50;73.10
12125;DHT22;6126;57.908;16.490;2023-05-23T06:10:54;15.30;72.70
12125;DHT22;6126;57.908;16.490;2023-05-23T06:13:21;15.50;72.60
12125;DHT22;6126;57.908;16.490;2023-05-23T06:15:47;15.60;72.60
12125;DHT22;6126;57.908;16.490;2023-05-23T06:18:13;15.50;72.40
12125;DHT22;6126;57.908;16.490;2023-05-23T06:20:38;15.50;72.20
12125;DHT22;6126;57.908;16.490;2023-05-23T06:23:04;15.80;72.40
12125;DHT22;6126;57.908;16.490;2023-05-23T06:25:31;15.60;72.00
12125;DHT22;6126;57.908;16.490;2023-05-23T06:27:57;15.40;71.80
12125;DHT22;6126;57.908;16.490;2023-05-23T06:30:22;15.60;72.00
12125;DHT22;6126;57.908;16.490;2023-05-23T06:32:48;15.60;72.00
12125;DHT22;6126;57.908;16.490;2023-05-23T06:35:15;15.60;71.90
12125;DHT22;6126;57.908;16.490;2023-05-23T06:37:42;15.80;71.90
12125;DHT22;6126;57.908;16.490;2023-05-23T06:40:11;15.70;71.70
12125;DHT22;6126;57.908;16.490;2023-05-23T06:42:38;15.90;71.50
12125;DHT22;6126;57.908;16.490;2023-05-23T06:45:05;15.90;71.20
12125;DHT22;6126;57.908;16.490;2023-05-23T06:47:31;16.10;71.10
12125;DHT22;6126;57.908;16.490;2023-05-23T06:49:57;16.00;70.60
12125;DHT22;6126;57.908;16.490;2023-05-23T06:52:23;16.20;70.40
12125;DHT22;6126;57.908;16.490;2023-05-23T06:54:50;16.30;70.10
12125;DHT22;6126;57.908;16.490;2023-05-23T06:57:16;16.20;69.70
12125;DHT22;6126;57.908;16.490;2023-05-23T06:59:42;16.30;69.40
12125;DHT22;6126;57.908;16.490;2023-05-23T07:02:07;16.50;69.30
12125;DHT22;6126;57.908;16.490;2023-05-23T07:04:33;16.50;69.00
12125;DHT22;6126;57.908;16.490;2023-05-23T07:06:59;16.70;68.90
12125;DHT22;6126;57.908;16.490;2023-05-23T07:09:25;16.80;68.60
12125;DHT22;6126;57.908;16.490;2023-05-23T07:11:51;16.90;68.30
12125;DHT22;6126;57.908;16.490;2023-05-23T07:14:17;16.90;68.10
12125;DHT22;6126;57.908;16.490;2023-05-23T07:16:45;16.90;67.60
12125;DHT22;6126;57.908;16.490;2023-05-23T07:19:11;17.00;67.30
12125;DHT22;6126;57.908;16.490;2023-05-23T07:21:37;17.30;67.40
12125;DHT22;6126;57.908;16.490;2023-05-23T07:24:04;17.00;66.70
12125;DHT22;6126;57.908;16.490;2023-05-23T07:26:30;17.30;66.60
12125;DHT22;6126;57.908;16.490;2023-05-23T07:28:56;17.40;66.30
12125;DHT22;6126;57.908;16.490;2023-05-23T07:31:23;17.60;66.10
12125;DHT22;6126;57.908;16.490;2023-05-23T07:33:48;17.60;65.70
12125;DHT22;6126;57.908;16.490;2023-05-23T07:36:14;17.60;65.20
12125;DHT22;6126;57.908;16.490;2023-05-23T07:38:41;17.90;65.20
12125;DHT22;6126;57.908;16.490;2023-05-23T07:41:06;18.00;65.00
12125;DHT22;6126;57.908;16.490;2023-05-23T07:43:32;17.90;64.60
12125;DHT22;6126;57.908;16.490;2023-05-23T07:45:58;17.90;64.40
12125;DHT22;6126;57.908;16.490;2023-05-23T07:48:24;18.00;64.20
12125;DHT22;6126;57.908;16.490;2023-05-23T07:50:51;18.10;64.20
12125;DHT22;6126;57.908;16.490;2023-05-23T07:53:20;17.90;63.70
12125;DHT22;6126;57.908;16.490;2023-05-23T07:55:47;18.30;63.90
12125;DHT22;6126;57.908;16.490;2023-05-23T07:58:13;18.30;63.60
12125;DHT22;6126;57.908;16.490;2023-05-23T08:00:39;18.30;63.20
12125;DHT22;6126;57.908;16.490;2023-05-23T08:03:06;18.30;63.00
12125;DHT22;6126;57.908;16.490;2023-05-23T08:05:32;18.60;63.00
12125;DHT22;6126;57.908;16.490;2023-05-23T08:07:58;18.30;62.60
12125;DHT22;6126;57.908;16.490;2023-05-23T08:10:24;18.60;62.70
12125;DHT22;6126;57.908;16.490;2023-05-23T08:12:53;18.50;62.40
12125;DHT22;6126;57.908;16.490;2023-05-23T08:15:19;18.70;62.30
12125;DHT22;6126;57.908;16.490;2023-05-23T08:17:47;18.90;62.30
12125;DHT22;6126;57.908;16.490;2023-05-23T08:20:14;19.00;62.10
12125;DHT22;6126;57.908;16.490;2023-05-23T08:22:39;18.80;61.40
12125;DHT22;6126;57.908;16.490;2023-05-23T08:25:05;19.30;61.70
12125;DHT22;6126;57.908;16.490;2023-05-23T08:27:32;19.40;61.40
12125;DHT22;6126;57.908;16.490;2023-05-23T08:30:00;19.50;61.20
12125;DHT22;6126;57.908;16.490;2023-05-23T08:32:27;19.60;60.90
12125;DHT22;6126;57.908;16.490;2023-05-23T08:34:53;19.70;60.70
12125;DHT22;6126;57.908;16.490;2023-05-23T08:37:19;19.90;60.50
12125;DHT22;6126;57.908;16.490;2023-05-23T08:39:45;20.00;60.10
12125;DHT22;6126;57.908;16.490;2023-05-23T08:42:11;20.10;59.90
12125;DHT22;6126;57.908;16.490;2023-05-23T08:44:37;20.20;59.80
12125;DHT22;6126;57.908;16.490;2023-05-23T08:47:06;20.30;59.60
12125;DHT22;6126;57.908;16.490;2023-05-23T08:49:33;20.30;59.50
12125;DHT22;6126;57.908;16.490;2023-05-23T08:52:01;20.40;59.30
12125;DHT22;6126;57.908;16.490;2023-05-23T08:54:31;20.40;59.20
12125;DHT22;6126;57.908;16.490;2023-05-23T08:56:58;20.40;59.10
12125;DHT22;6126;57.908;16.490;2023-05-23T08:59:25;20.40;59.00
12125;DHT22;6126;57.908;16.490;2023-05-23T09:01:53;20.40;58.90
12125;DHT22;6126;57.908;16.490;2023-05-23T09:04:21;20.40;58.90
12125;DHT22;6126;57.908;16.490;2023-05-23T09:06:47;20.40;58.70
12125;DHT22;6126;57.908;16.490;2023-05-23T09:09:13;20.50;58.70
12125;DHT22;6126;57.908;16.490;2023-05-23T09:11:40;20.40;58.60
12125;DHT22;6126;57.908;16.490;2023-05-23T09:14:10;20.40;58.60
12125;DHT22;6126;57.908;16.490;2023-05-23T09:16:39;20.20;58.60
12125;DHT22;6126;57.908;16.490;2023-05-23T09:19:12;20.20;58.70
12125;DHT22;6126;57.908;16.490;2023-05-23T09:21:45;20.10;58.60
12125;DHT22;6126;57.908;16.490;2023-05-23T09:24:11;20.20;58.70
12125;DHT22;6126;57.908;16.490;2023-05-23T09:26:37;20.30;58.50
12125;DHT22;6126;57.908;16.490;2023-05-23T09:29:05;20.40;58.30
12125;DHT22;6126;57.908;16.490;2023-05-23T09:31:32;20.50;58.10
12125;DHT22;6126;57.908;16.490;2023-05-23T09:33:58;20.50;57.90
12125;DHT22;6126;57.908;16.490;2023-05-23T09:36:28;20.60;57.80
12125;DHT22;6126;57.908;16.490;2023-05-23T09:38:55;20.60;57.60
12125;DHT22;6126;57.908;16.490;2023-05-23T09:41:22;20.60;57.50
12125;DHT22;6126;57.908;16.490;2023-05-23T09:43:52;20.60;57.40
12125;DHT22;6126;57.908;16.490;2023-05-23T09:46:20;20.50;57.40
12125;DHT22;6126;57.908;16.490;2023-05-23T09:48:48;20.50;57.40
12125;DHT22;6126;57.908;16.490;2023-05-23T09:51:18;20.50;57.30
12125;DHT22;6126;57.908;16.490;2023-05-23T09:53:48;20.60;57.20
12125;DHT22;6126;57.908;16.490;2023-05-23T09:56:18;20.60;57.10
12125;DHT22;6126;57.908;16.490;2023-05-23T09:58:48;20.70;57.10
12125;DHT22;6126;57.908;16.490;2023-05-23T10:01:16;20.70;57.00
12125;DHT22;6126;57.908;16.490;2023-05-23T10:03:44;20.80;56.80
12125;DHT22;6126;57.908;16.490;2023-05-23T10:06:17;20.90;56.70
12125;DHT22;6126;57.908;16.490;2023-05-23T10:08:58;21.00;56.40
12125;DHT22;6126;57.908;16.490;2023-05-23T10:14:08;21.10;56.20
12125;DHT22;6126;57.908;16.490;2023-05-23T10:16:39;21.10;56.10
12125;DHT22;6126;57.908;16.490;2023-05-23T10:21:51;20.90;56.10
12125;DHT22;6126;57.908;16.490;2023-05-23T10:24:24;20.80;56.10
12125;DHT22;6126;57.908;16.490;2023-05-23T10:26:52;20.60;56.10
12125;DHT22;6126;57.908;16.490;2023-05-23T10:29:21;20.50;56.20
12125;DHT22;6126;57.908;16.490;2023-05-23T10:31:47;20.40;56.20
12125;DHT22;6126;57.908;16.490;2023-05-23T10:34:22;20.30;56.20
12125;DHT22;6126;57.908;16.490;2023-05-23T10:36:59;20.20;56.30
12125;DHT22;6126;57.908;16.490;2023-05-23T10:45:14;20.00;56.20
12125;DHT22;6126;57.908;16.490;2023-05-23T10:47:41;20.00;56.10
12125;DHT22;6126;57.908;16.490;2023-05-23T10:50:11;20.10;56.00
12125;DHT22;6126;57.908;16.490;2023-05-23T10:52:40;20.10;55.80
12125;DHT22;6126;57.908;16.490;2023-05-23T10:55:15;20.20;55.80
12125;DHT22;6126;57.908;16.490;2023-05-23T10:57:43;20.20;55.50
12125;DHT22;6126;57.908;16.490;2023-05-23T11:00:22;20.40;55.40
12125;DHT22;6126;57.908;16.490;2023-05-23T11:02:53;20.50;55.10
12125;DHT22;6126;57.908;16.490;2023-05-23T11:05:24;20.60;54.90
12125;DHT22;6126;57.908;16.490;2023-05-23T11:08:12;20.60;54.80
12125;DHT22;6126;57.908;16.490;2023-05-23T11:13:20;20.60;54.70
12125;DHT22;6126;57.908;16.490;2023-05-23T11:15:46;20.50;54.70
12125;DHT22;6126;57.908;16.490;2023-05-23T11:18:23;20.40;54.60
12125;DHT22;6126;57.908;16.490;2023-05-23T11:20:53;20.40;54.60
12125;DHT22;6126;57.908;16.490;2023-05-23T11:23:20;20.20;54.40
12125;DHT22;6126;57.908;16.490;2023-05-23T11:25:51;20.30;54.50
12125;DHT22;6126;57.908;16.490;2023-05-23T11:28:18;20.30;54.50
12125;DHT22;6126;57.908;16.490;2023-05-23T11:30:48;20.20;54.40
12125;DHT22;6126;57.908;16.490;2023-05-23T11:33:15;20.20;54.40
12125;DHT22;6126;57.908;16.490;2023-05-23T11:35:47;20.10;54.30
12125;DHT22;6126;57.908;16.490;2023-05-23T11:38:14;20.10;54.40
12125;DHT22;6126;57.908;16.490;2023-05-23T11:40:45;20.00;54.30
12125;DHT22;6126;57.908;16.490;2023-05-23T11:43:15;19.90;54.30
12125;DHT22;6126;57.908;16.490;2023-05-23T11:45:42;19.90;54.30
12125;DHT22;6126;57.908;16.490;2023-05-23T11:48:15;19.90;54.40
12125;DHT22;6126;57.908;16.490;2023-05-23T11:50:49;19.90;54.30
12125;DHT22;6126;57.908;16.490;2023-05-23T11:53:18;19.90;54.30
12125;DHT22;6126;57.908;16.490;2023-05-23T11:55:54;19.80;54.10
12125;DHT22;6126;57.908;16.490;2023-05-23T11:58:30;19.90;54.20
12125;DHT22;6126;57.908;16.490;2023-05-23T12:03:31;19.80;54.10
12125;DHT22;6126;57.908;16.490;2023-05-23T12:05:58;19.60;54.10
12125;DHT22;6126;57.908;16.490;2023-05-23T12:08:26;19.70;54.80
12125;DHT22;6126;57.908;16.490;2023-05-23T12:10:56;19.70;54.10
12125;DHT22;6126;57.908;16.490;2023-05-23T12:13:24;19.70;54.10
12125;DHT22;6126;57.908;16.490;2023-05-23T12:15:56;19.70;54.10
12125;DHT22;6126;57.908;16.490;2023-05-23T12:18:27;19.80;54.30
12125;DHT22;6126;57.908;16.490;2023-05-23T12:20:54;19.60;54.10
12125;DHT22;6126;57.908;16.490;2023-05-23T12:23:26;19.60;54.10
12125;DHT22;6126;57.908;16.490;2023-05-23T12:25:54;19.40;54.00
12125;DHT22;6126;57.908;16.490;2023-05-23T12:28:40;19.40;54.10
12125;DHT22;6126;57.908;16.490;2023-05-23T12:31:15;19.50;54.20
12125;DHT22;6126;57.908;16.490;2023-05-23T12:33:44;19.50;54.20
12125;DHT22;6126;57.908;16.490;2023-05-23T12:36:15;19.50;54.10
12125;DHT22;6126;57.908;16.490;2023-05-23T12:38:47;19.60;54.10
12125;DHT22;6126;57.908;16.490;2023-05-23T12:41:18;19.30;53.90
12125;DHT22;6126;57.908;16.490;2023-05-23T12:43:52;19.70;54.10
12125;DHT22;6126;57.908;16.490;2023-05-23T12:46:23;19.50;54.10
12125;DHT22;6126;57.908;16.490;2023-05-23T12:48:50;19.10;53.80
12125;DHT22;6126;57.908;16.490;2023-05-23T12:51:16;19.30;54.00
12125;DHT22;6126;57.908;16.490;2023-05-23T12:53:42;19.40;54.20
12125;DHT22;6126;57.908;16.490;2023-05-23T12:56:08;19.20;53.90
12125;DHT22;6126;57.908;16.490;2023-05-23T12:58:34;19.40;54.00
12125;DHT22;6126;57.908;16.490;2023-05-23T13:01:01;19.20;53.90
12125;DHT22;6126;57.908;16.490;2023-05-23T13:03:28;19.50;54.20
12125;DHT22;6126;57.908;16.490;2023-05-23T13:05:58;19.30;54.10
12125;DHT22;6126;57.908;16.490;2023-05-23T13:08:27;19.40;54.20
12125;DHT22;6126;57.908;16.490;2023-05-23T13:10:54;19.50;54.20
12125;DHT22;6126;57.908;16.490;2023-05-23T13:13:20;19.60;54.10
12125;DHT22;6126;57.908;16.490;2023-05-23T13:15:47;19.30;53.70
12125;DHT22;6126;57.908;16.490;2023-05-23T13:18:13;19.60;53.80
12125;DHT22;6126;57.908;16.490;2023-05-23T13:20:39;19.90;53.80
12125;DHT22;6126;57.908;16.490;2023-05-23T13:23:06;19.70;53.30
12125;DHT22;6126;57.908;16.490;2023-05-23T13:25:34;19.80;53.20
12125;DHT22;6126;57.908;16.490;2023-05-23T13:28:00;20.10;53.20
12125;DHT22;6126;57.908;16.490;2023-05-23T13:30:27;20.00;52.80
12125;DHT22;6126;57.908;16.490;2023-05-23T13:32:53;20.00;52.60
12125;DHT22;6126;57.908;16.490;2023-05-23T13:35:19;20.00;52.50
12125;DHT22;6126;57.908;16.490;2023-05-23T13:37:45;20.00;52.70
12125;DHT22;6126;57.908;16.490;2023-05-23T13:40:15;20.00;52.70
12125;DHT22;6126;57.908;16.490;2023-05-23T13:42:47;20.00;52.60
12125;DHT22;6126;57.908;16.490;2023-05-23T13:45:15;20.00;52.60
12125;DHT22;6126;57.908;16.490;2023-05-23T13:47:43;20.00;52.60
12125;DHT22;6126;57.908;16.490;2023-05-23T13:50:09;20.00;52.60
12125;DHT22;6126;57.908;16.490;2023-05-23T13:52:35;19.90;52.60
12125;DHT22;6126;57.908;16.490;2023-05-23T13:55:05;19.70;52.40
12125;DHT22;6126;57.908;16.490;2023-05-23T13:57:31;19.50;52.30
12125;DHT22;6126;57.908;16.490;2023-05-23T13:59:57;19.50;52.40
12125;DHT22;6126;57.908;16.490;2023-05-23T14:02:23;19.80;52.60
12125;DHT22;6126;57.908;16.490;2023-05-23T14:04:49;19.40;52.20
12125;DHT22;6126;57.908;16.490;2023-05-23T14:07:16;19.60;52.30
12125;DHT22;6126;57.908;16.490;2023-05-23T14:09:43;19.80;52.40
12125;DHT22;6126;57.908;16.490;2023-05-23T14:12:09;19.90;52.50
12125;DHT22;6126;57.908;16.490;2023-05-23T14:14:35;19.80;52.30
12125;DHT22;6126;57.908;16.490;2023-05-23T14:17:01;19.80;52.40
12125;DHT22;6126;57.908;16.490;2023-05-23T14:19:27;19.40;52.00
12125;DHT22;6126;57.908;16.490;2023-05-23T14:21:53;20.00;52.40
12125;DHT22;6126;57.908;16.490;2023-05-23T14:24:19;19.70;52.20
12125;DHT22;6126;57.908;16.490;2023-05-23T14:26:46;19.60;52.10
12125;DHT22;6126;57.908;16.490;2023-05-23T14:29:12;20.00;52.50
12125;DHT22;6126;57.908;16.490;2023-05-23T14:31:38;19.20;51.90
12125;DHT22;6126;57.908;16.490;2023-05-23T14:34:04;19.60;52.20
12125;DHT22;6126;57.908;16.490;2023-05-23T14:36:30;19.70;52.30
12125;DHT22;6126;57.908;16.490;2023-05-23T14:38:57;19.40;52.20
12125;DHT22;6126;57.908;16.490;2023-05-23T14:41:23;19.30;52.10
12125;DHT22;6126;57.908;16.490;2023-05-23T14:43:49;19.80;52.50
12125;DHT22;6126;57.908;16.490;2023-05-23T14:46:16;19.50;52.30
12125;DHT22;6126;57.908;16.490;2023-05-23T14:48:42;19.20;52.10
12125;DHT22;6126;57.908;16.490;2023-05-23T14:51:08;19.70;52.50
12125;DHT22;6126;57.908;16.490;2023-05-23T14:53:34;19.60;52.50
12125;DHT22;6126;57.908;16.490;2023-05-23T14:56:01;19.50;52.50
12125;DHT22;6126;57.908;16.490;2023-05-23T14:58:26;19.50;52.50
12125;DHT22;6126;57.908;16.490;2023-05-23T15:00:52;19.40;52.40
12125;DHT22;6126;57.908;16.490;2023-05-23T15:03:18;19.50;52.60
12125;DHT22;6126;57.908;16.490;2023-05-23T15:05:44;19.50;52.60
12125;DHT22;6126;57.908;16.490;2023-05-23T15:08:13;19.70;52.80
12125;DHT22;6126;57.908;16.490;2023-05-23T15:10:40;19.50;52.70
12125;DHT22;6126;57.908;16.490;2023-05-23T15:13:09;19.50;52.60
12125;DHT22;6126;57.908;16.490;2023-05-23T15:15:35;19.50;52.60
12125;DHT22;6126;57.908;16.490;2023-05-23T15:18:02;19.60;52.80
12125;DHT22;6126;57.908;16.490;2023-05-23T15:20:32;19.60;52.80
12125;DHT22;6126;57.908;16.490;2023-05-23T15:22:58;19.20;52.40
12125;DHT22;6126;57.908;16.490;2023-05-23T15:25:24;19.60;52.80
12125;DHT22;6126;57.908;16.490;2023-05-23T15:27:53;19.70;52.80
12125;DHT22;6126;57.908;16.490;2023-05-23T15:30:21;19.70;52.80
12125;DHT22;6126;57.908;16.490;2023-05-23T15:32:47;19.70;52.80
12125;DHT22;6126;57.908;16.490;2023-05-23T15:35:13;19.80;52.90
12125;DHT22;6126;57.908;16.490;2023-05-23T15:37:40;19.60;52.80
12125;DHT22;6126;57.908;16.490;2023-05-23T15:40:07;19.80;52.90
12125;DHT22;6126;57.908;16.490;2023-05-23T15:42:34;19.80;52.80
12125;DHT22;6126;57.908;16.490;2023-05-23T15:45:01;19.80;52.90
12125;DHT22;6126;57.908;16.490;2023-05-23T15:47:27;19.80;52.90
12125;DHT22;6126;57.908;16.490;2023-05-23T15:49:53;20.00;53.00
12125;DHT22;6126;57.908;16.490;2023-05-23T15:52:19;19.90;53.00
12125;DHT22;6126;57.908;16.490;2023-05-23T15:54:45;20.00;53.00
12125;DHT22;6126;57.908;16.490;2023-05-23T15:57:11;20.20;53.10
12125;DHT22;6126;57.908;16.490;2023-05-23T15:59:38;20.00;53.00